Time;durP1;ratioP1;P1;durP2;ratioP2;P2;SDS_P1;SDS_P2;PMS_P1;PMS_P2;Temp;Humidity;BMP_temperature;BMP_pressure;BME280_temperature;BME280_humidity;BME280_pressure;Samples;Min_cycle;Max_cycle;Signal;HPM_P1;HPM_P2
2023/08/08 00:00:28;;;;;;;1.65;0.68;;;23.90;99.90;;;;;;5045347;28;20041;-61
2023/08/08 00:02:53;;;;;;;0.63;0.45;;;23.90;99.90;;;;;;5032990;28;20494;-60
2023/08/08 00:05:19;;;;;;;2.33;0.70;;;23.90;99.90;;;;;;5032714;28;20391;-61
2023/08/08 00:07:44;;;;;;;0.52;0.40;;;23.90;99.90;;;;;;5033075;28;20033;-60
2023/08/08 00:10:10;;;;;;;0.63;0.50;;;23.90;99.90;;;;;;5032623;28;20100;-60
2023/08/08 00:12:36;;;;;;;2.50;0.80;;;24.00;99.90;;;;;;5032989;28;20108;-60
2023/08/08 00:15:02;;;;;;;0.75;0.60;;;23.80;99.90;;;;;;5032913;28;20033;-60
2023/08/08 00:17:27;;;;;;;0.60;0.50;;;23.80;99.90;;;;;;5046826;28;20033;-60
2023/08/08 00:19:53;;;;;;;0.98;0.50;;;23.70;99.90;;;;;;5032574;28;20022;-60
2023/08/08 00:22:19;;;;;;;0.80;0.65;;;23.80;99.90;;;;;;5032844;28;20101;-60
2023/08/08 00:24:44;;;;;;;1.42;0.47;;;23.80;99.90;;;;;;5032773;28;20038;-60
2023/08/08 00:27:10;;;;;;;1.15;0.50;;;23.80;99.90;;;;;;5032815;28;20033;-60
2023/08/08 00:29:36;;;;;;;0.50;0.50;;;23.70;99.90;;;;;;5032603;28;20030;-61
2023/08/08 00:32:01;;;;;;;0.40;0.40;;;23.60;99.90;;;;;;5032653;28;20479;-60
2023/08/08 00:34:27;;;;;;;1.58;0.80;;;23.50;99.90;;;;;;5032528;28;20029;-60
2023/08/08 00:36:53;;;;;;;1.08;0.32;;;23.60;99.90;;;;;;5035531;28;20021;-60
2023/08/08 00:39:18;;;;;;;1.05;0.50;;;23.60;99.90;;;;;;5036461;28;20049;-61
2023/08/08 00:41:44;;;;;;;1.55;0.57;;;23.50;99.90;;;;;;5034442;28;20170;-60
2023/08/08 00:44:10;;;;;;;2.47;0.75;;;23.60;99.90;;;;;;5036343;28;20045;-60
2023/08/08 00:46:35;;;;;;;0.50;0.50;;;23.60;99.90;;;;;;5036314;28;20356;-60
2023/08/08 00:49:01;;;;;;;3.15;0.68;;;23.60;99.90;;;;;;5035094;28;20021;-60
2023/08/08 00:51:27;;;;;;;2.25;0.47;;;23.60;99.90;;;;;;5036424;28;20030;-60
2023/08/08 00:53:57;;;;;;;0.90;0.47;;;23.60;99.90;;;;;;5036332;28;20479;-60
2023/08/08 00:56:23;;;;;;;0.57;0.57;;;23.60;99.90;;;;;;5036012;28;20501;-60
2023/08/08 00:58:50;;;;;;;1.73;0.88;;;23.60;99.90;;;;;;5035707;28;20104;-60
2023/08/08 01:01:17;;;;;;;1.13;0.50;;;23.60;99.90;;;;;;5035890;28;20022;-60
2023/08/08 01:03:43;;;;;;;0.85;0.40;;;23.60;99.90;;;;;;5035746;28;20057;-60
2023/08/08 01:06:50;;;;;;;0.82;0.47;;;23.60;99.90;;;;;;5034371;28;20067;-60
2023/08/08 01:09:53;;;;;;;0.40;0.40;;;23.60;99.90;;;;;;5035584;28;20029;-60
2023/08/08 01:12:19;;;;;;;1.17;0.82;;;23.50;99.90;;;;;;5013418;28;20033;-60
2023/08/08 01:14:45;;;;;;;1.67;0.40;;;23.50;99.90;;;;;;5034183;28;20029;-60
2023/08/08 01:17:12;;;;;;;1.13;0.50;;;23.50;99.90;;;;;;5035070;28;20030;-60
2023/08/08 01:19:38;;;;;;;0.65;0.52;;;23.50;99.90;;;;;;5034373;28;20026;-60
2023/08/08 01:22:14;;;;;;;2.67;0.73;;;23.40;99.90;;;;;;5035138;28;20014;-60
2023/08/08 01:24:40;;;;;;;0.98;0.50;;;23.50;99.90;;;;;;5034658;28;20037;-60
2023/08/08 01:27:06;;;;;;;1.13;0.60;;;23.40;99.90;;;;;;5034779;28;20014;-60
2023/08/08 01:29:32;;;;;;;1.73;0.63;;;23.40;99.90;;;;;;5034738;28;20029;-60
2023/08/08 01:31:57;;;;;;;0.55;0.55;;;23.50;99.90;;;;;;5034521;28;20025;-60
2023/08/08 01:34:23;;;;;;;1.08;0.40;;;23.50;99.90;;;;;;5034541;28;20025;-60
2023/08/08 01:37:08;;;;;;;0.45;0.38;;;23.40;99.90;;;;;;5034503;28;20025;-60
2023/08/08 01:39:40;;;;;;;1.50;0.57;;;23.40;99.90;;;;;;5034860;28;20033;-59
2023/08/08 01:42:06;;;;;;;2.15;0.50;;;23.40;99.90;;;;;;5034360;28;20034;-60
2023/08/08 01:44:34;;;;;;;0.88;0.68;;;23.40;99.90;;;;;;5034549;28;20067;-60
2023/08/08 01:47:00;;;;;;;1.38;0.40;;;23.40;99.90;;;;;;5034348;28;20025;-60
2023/08/08 01:49:26;;;;;;;0.73;0.60;;;23.30;99.90;;;;;;5034517;28;20025;-59
2023/08/08 01:51:52;;;;;;;0.63;0.63;;;23.30;99.90;;;;;;5034139;28;20498;-60
2023/08/08 01:54:18;;;;;;;1.27;0.60;;;23.30;99.90;;;;;;5032682;28;20033;-60
2023/08/08 01:56:44;;;;;;;1.42;0.88;;;23.30;99.90;;;;;;5038087;28;20092;-59
2023/08/08 01:59:10;;;;;;;2.10;0.55;;;23.30;99.90;;;;;;5047976;28;20058;-60
2023/08/08 02:01:35;;;;;;;1.63;0.60;;;23.30;99.90;;;;;;5047343;28;20036;-60
2023/08/08 02:04:02;;;;;;;0.88;0.32;;;23.30;99.90;;;;;;5036729;28;20033;-61
2023/08/08 02:06:28;;;;;;;0.50;0.50;;;23.40;99.90;;;;;;5046018;28;20061;-61
2023/08/08 02:08:54;;;;;;;0.52;0.50;;;23.20;99.90;;;;;;5034664;28;20053;-60
2023/08/08 02:11:21;;;;;;;1.63;0.70;;;23.20;99.90;;;;;;5034646;28;20045;-60
2023/08/08 02:13:47;;;;;;;2.47;0.73;;;23.20;99.90;;;;;;5034533;28;20067;-60
2023/08/08 02:16:12;;;;;;;1.20;0.63;;;23.10;99.90;;;;;;5034291;28;20018;-60
2023/08/08 02:18:40;;;;;;;2.15;0.75;;;23.10;99.90;;;;;;5034476;28;20029;-60
2023/08/08 02:21:07;;;;;;;1.65;0.73;;;23.10;99.90;;;;;;5033456;28;20375;-60
2023/08/08 02:23:33;;;;;;;0.90;0.50;;;23.10;99.90;;;;;;5034286;28;20041;-60
2023/08/08 02:25:59;;;;;;;2.20;0.70;;;23.10;99.90;;;;;;5034300;28;20017;-59
2023/08/08 02:28:25;;;;;;;2.25;0.80;;;23.10;99.90;;;;;;5034330;28;20029;-61
2023/08/08 02:30:51;;;;;;;1.40;0.70;;;23.10;99.90;;;;;;5047232;28;20033;-60
2023/08/08 02:33:17;;;;;;;0.95;0.60;;;23.00;99.90;;;;;;5035420;28;20083;-61
2023/08/08 02:35:42;;;;;;;2.63;0.80;;;23.10;99.90;;;;;;5034483;28;20029;-60
2023/08/08 02:38:08;;;;;;;3.95;0.82;;;23.20;99.90;;;;;;5034331;28;20530;-60
2023/08/08 02:41:00;;;;;;;1.67;0.70;;;23.20;99.90;;;;;;5034059;28;20025;-60
2023/08/08 02:43:26;;;;;;;1.50;0.80;;;23.20;99.90;;;;;;5020417;28;20065;-60
2023/08/08 02:45:52;;;;;;;1.55;0.80;;;23.10;99.90;;;;;;5034230;28;20044;-60
2023/08/08 02:48:17;;;;;;;1.33;0.70;;;23.20;99.90;;;;;;5033764;28;20483;-61
2023/08/08 02:50:43;;;;;;;1.75;1.08;;;23.20;99.90;;;;;;5034008;28;20026;-60
2023/08/08 02:53:09;;;;;;;3.05;0.80;;;23.20;99.90;;;;;;5033940;28;20448;-60
2023/08/08 02:55:36;;;;;;;2.40;0.55;;;23.20;99.90;;;;;;5032846;28;20029;-61
2023/08/08 02:58:02;;;;;;;2.33;0.73;;;23.20;99.90;;;;;;5031723;28;20039;-57
2023/08/08 03:00:30;;;;;;;1.55;0.60;;;23.10;99.90;;;;;;5033641;28;20034;-61
2023/08/08 03:02:56;;;;;;;1.45;0.45;;;23.20;99.90;;;;;;5033842;28;20083;-60
2023/08/08 03:05:22;;;;;;;0.50;0.50;;;23.20;99.90;;;;;;5047721;28;20598;-60
2023/08/08 03:07:47;;;;;;;1.83;0.50;;;23.20;99.90;;;;;;5033554;28;20467;-60
2023/08/08 03:10:13;;;;;;;1.15;0.82;;;23.20;99.90;;;;;;5033804;28;20482;-60
2023/08/08 03:12:39;;;;;;;0.88;0.52;;;23.20;99.90;;;;;;5033428;28;20057;-61
2023/08/08 03:15:05;;;;;;;2.55;0.70;;;23.10;99.90;;;;;;5033553;28;20029;-61
2023/08/08 03:17:31;;;;;;;1.27;0.82;;;23.20;99.90;;;;;;5033310;28;20494;-60
2023/08/08 03:19:57;;;;;;;1.10;0.98;;;23.10;99.90;;;;;;5033525;28;20048;-60
2023/08/08 03:22:22;;;;;;;5.28;0.73;;;23.00;99.90;;;;;;5032379;28;20371;-61
2023/08/08 03:24:48;;;;;;;1.63;0.57;;;23.00;99.90;;;;;;5033470;28;20048;-61
2023/08/08 03:27:19;;;;;;;0.57;0.57;;;23.00;99.90;;;;;;5033264;28;20373;-60
2023/08/08 03:29:45;;;;;;;0.68;0.50;;;23.00;99.90;;;;;;5020146;28;20410;-60
2023/08/08 03:32:10;;;;;;;0.70;0.60;;;23.00;99.90;;;;;;5033422;28;20071;-60
2023/08/08 03:34:36;;;;;;;0.45;0.45;;;23.00;99.90;;;;;;5033105;28;20064;-60
2023/08/08 03:37:02;;;;;;;2.63;1.00;;;23.00;99.90;;;;;;5033355;28;20101;-60
2023/08/08 03:39:27;;;;;;;0.82;0.70;;;22.90;99.90;;;;;;5033043;28;20026;-60
2023/08/08 03:41:53;;;;;;;0.60;0.57;;;22.90;99.90;;;;;;5033116;28;20073;-60
2023/08/08 03:44:19;;;;;;;1.30;0.50;;;23.00;99.90;;;;;;5033005;28;20041;-60
2023/08/08 03:46:45;;;;;;;1.17;0.52;;;22.90;99.90;;;;;;5033056;28;20036;-61
2023/08/08 03:49:10;;;;;;;1.75;0.75;;;22.90;99.90;;;;;;5031534;28;20036;-60
2023/08/08 03:51:36;;;;;;;2.13;0.95;;;22.90;99.90;;;;;;5032916;28;20041;-60
2023/08/08 03:54:02;;;;;;;1.33;0.70;;;22.90;99.90;;;;;;5032896;28;20029;-60
2023/08/08 03:56:28;;;;;;;1.83;0.70;;;22.80;99.90;;;;;;5032879;28;20120;-60
2023/08/08 03:58:54;;;;;;;1.75;0.75;;;22.80;99.90;;;;;;5019414;28;20134;-60
2023/08/08 04:01:19;;;;;;;1.40;0.52;;;22.50;99.90;;;;;;5032206;28;20091;-60
2023/08/08 04:03:45;;;;;;;1.00;0.60;;;22.80;99.90;;;;;;5035255;28;20502;-60
2023/08/08 04:06:11;;;;;;;1.17;0.65;;;22.80;99.90;;;;;;5044210;28;20029;-61
2023/08/08 04:08:36;;;;;;;1.00;0.80;;;22.70;99.90;;;;;;5032759;28;20034;-61
2023/08/08 04:11:02;;;;;;;1.02;0.90;;;22.60;99.90;;;;;;5034414;28;20021;-61
2023/08/08 04:13:28;;;;;;;3.33;0.75;;;22.60;99.90;;;;;;5040099;28;22374;-61
2023/08/08 04:15:53;;;;;;;1.48;0.73;;;22.60;99.90;;;;;;5056592;28;20021;-62
2023/08/08 04:18:19;;;;;;;2.53;0.80;;;22.60;99.90;;;;;;5053266;28;20111;-61
2023/08/08 04:20:48;;;;;;;1.23;0.70;;;22.60;99.90;;;;;;5042868;28;20506;-61
2023/08/08 04:23:13;;;;;;;1.00;0.70;;;22.70;99.90;;;;;;5050320;28;20036;-61
2023/08/08 04:25:39;;;;;;;0.65;0.55;;;22.50;99.90;;;;;;5037089;28;20021;-61
2023/08/08 04:28:05;;;;;;;0.88;0.80;;;22.70;99.90;;;;;;5036522;28;20118;-61
2023/08/08 04:30:30;;;;;;;1.70;0.57;;;22.60;99.90;;;;;;5039467;28;20355;-61
2023/08/08 04:32:56;;;;;;;1.80;0.80;;;22.70;99.90;;;;;;5047452;28;20509;-61
2023/08/08 04:35:22;;;;;;;1.42;0.75;;;22.60;99.90;;;;;;5035028;28;20041;-61
2023/08/08 04:37:47;;;;;;;0.82;0.60;;;22.50;99.90;;;;;;5036283;28;20079;-61
2023/08/08 04:40:13;;;;;;;0.85;0.68;;;22.60;99.90;;;;;;5036297;28;20076;-59
2023/08/08 04:42:39;;;;;;;0.77;0.63;;;22.70;99.90;;;;;;5036133;28;20073;-60
2023/08/08 04:45:06;;;;;;;1.92;0.60;;;22.70;99.90;;;;;;5036284;28;20037;-60
2023/08/08 04:47:31;;;;;;;0.55;0.52;;;22.60;99.90;;;;;;5038732;28;20357;-59
2023/08/08 04:49:57;;;;;;;1.10;0.40;;;22.60;99.90;;;;;;5047598;28;20029;-60
2023/08/08 04:52:23;;;;;;;2.38;0.75;;;22.60;99.90;;;;;;5029564;28;20022;-59
2023/08/08 04:54:48;;;;;;;0.50;0.50;;;22.60;99.90;;;;;;5034699;28;20018;-61
2023/08/08 04:57:14;;;;;;;0.93;0.60;;;22.70;99.90;;;;;;5035962;28;20021;-61
2023/08/08 04:59:40;;;;;;;1.58;0.40;;;22.70;99.90;;;;;;5035621;28;20084;-61
2023/08/08 05:02:05;;;;;;;0.60;0.60;;;22.70;99.90;;;;;;5036300;28;20034;-61
2023/08/08 05:04:32;;;;;;;0.73;0.50;;;22.70;99.90;;;;;;5035826;28;20431;-61
2023/08/08 05:06:58;;;;;;;1.35;0.50;;;22.70;99.90;;;;;;5035870;28;20040;-61
2023/08/08 05:09:26;;;;;;;2.90;0.65;;;22.70;99.90;;;;;;5035685;28;20471;-61
2023/08/08 05:11:52;;;;;;;0.63;0.63;;;22.70;99.90;;;;;;5035766;28;20018;-61
2023/08/08 05:14:18;;;;;;;0.40;0.40;;;22.70;99.90;;;;;;5034647;28;20069;-61
2023/08/08 05:16:44;;;;;;;0.75;0.60;;;22.70;99.90;;;;;;5035602;28;20049;-61
2023/08/08 05:19:09;;;;;;;1.45;0.52;;;22.70;99.90;;;;;;5035531;28;20045;-61
2023/08/08 05:21:35;;;;;;;0.63;0.60;;;22.70;99.90;;;;;;5035707;28;20021;-60
2023/08/08 05:24:01;;;;;;;3.05;0.65;;;22.80;99.90;;;;;;5047530;28;20387;-60
2023/08/08 05:26:27;;;;;;;3.08;0.50;;;22.70;99.90;;;;;;5035657;28;20048;-60
2023/08/08 05:28:52;;;;;;;2.13;0.57;;;22.80;99.90;;;;;;5035703;28;20069;-60
2023/08/08 05:31:18;;;;;;;2.67;0.80;;;22.80;99.90;;;;;;5025516;28;20452;-60
2023/08/08 05:33:44;;;;;;;1.50;0.43;;;22.80;99.90;;;;;;5032748;28;20037;-60
2023/08/08 05:36:09;;;;;;;1.08;0.75;;;22.80;99.90;;;;;;5034647;28;20040;-60
2023/08/08 05:38:35;;;;;;;0.82;0.50;;;22.80;99.90;;;;;;5035071;28;20053;-60
2023/08/08 05:41:00;;;;;;;2.63;0.70;;;22.80;99.90;;;;;;5035278;28;20053;-60
2023/08/08 05:43:27;;;;;;;1.42;0.60;;;22.80;99.90;;;;;;5033741;28;20041;-60
2023/08/08 05:45:53;;;;;;;4.35;0.63;;;22.90;99.90;;;;;;5034947;28;20478;-60
2023/08/08 05:48:19;;;;;;;1.83;0.60;;;22.90;99.90;;;;;;5034983;28;20438;-60
2023/08/08 05:50:44;;;;;;;1.05;0.80;;;22.90;99.90;;;;;;5035255;28;20029;-60
2023/08/08 05:53:10;;;;;;;1.50;0.63;;;22.90;99.90;;;;;;5035217;28;20394;-60
2023/08/08 05:55:36;;;;;;;6.47;0.88;;;22.90;99.90;;;;;;5035281;28;20036;-60
2023/08/08 05:58:01;;;;;;;0.47;0.40;;;22.90;99.90;;;;;;5034781;28;20014;-58
2023/08/08 06:00:27;;;;;;;0.73;0.60;;;23.00;99.90;;;;;;5035062;28;20045;-61
2023/08/08 06:02:53;;;;;;;2.30;0.90;;;23.00;99.90;;;;;;5034503;28;20060;-62
2023/08/08 06:05:22;;;;;;;2.42;0.50;;;23.10;99.90;;;;;;5032841;28;20053;-62
2023/08/08 06:07:48;;;;;;;3.42;0.63;;;23.10;99.90;;;;;;5032844;28;20018;-62
2023/08/08 06:10:14;;;;;;;2.75;0.50;;;23.10;99.90;;;;;;5034440;28;20026;-62
2023/08/08 06:12:39;;;;;;;1.55;0.60;;;23.20;99.90;;;;;;5034720;28;20113;-62
2023/08/08 06:15:06;;;;;;;2.13;0.63;;;23.10;99.90;;;;;;5034365;28;20075;-62
2023/08/08 06:17:31;;;;;;;2.50;0.60;;;23.10;99.90;;;;;;5034306;28;20045;-62
2023/08/08 06:19:57;;;;;;;2.53;0.50;;;23.00;99.90;;;;;;5034471;28;20052;-61
2023/08/08 06:22:23;;;;;;;1.60;0.50;;;23.00;99.90;;;;;;5042804;28;20052;-62
2023/08/08 06:24:49;;;;;;;4.05;0.52;;;23.10;99.90;;;;;;5026727;28;20076;-62
2023/08/08 06:27:15;;;;;;;0.40;0.40;;;23.10;99.90;;;;;;5034208;28;20052;-62
2023/08/08 06:29:41;;;;;;;1.83;0.65;;;23.00;99.90;;;;;;5034285;28;20491;-62
2023/08/08 06:32:07;;;;;;;1.23;0.45;;;23.10;99.90;;;;;;5029426;28;20025;-62
2023/08/08 06:34:33;;;;;;;4.80;0.95;;;23.10;99.90;;;;;;5031283;28;20100;-61
2023/08/08 06:36:58;;;;;;;0.88;0.75;;;23.10;99.90;;;;;;5033491;28;20168;-61
2023/08/08 06:39:25;;;;;;;2.50;0.65;;;23.10;99.90;;;;;;5034013;28;20441;-61
2023/08/08 06:41:50;;;;;;;3.33;0.80;;;23.20;99.90;;;;;;5033908;28;20113;-62
2023/08/08 06:44:16;;;;;;;1.75;0.88;;;23.30;99.90;;;;;;5033807;28;20120;-61
2023/08/08 06:46:42;;;;;;;2.03;1.05;;;23.30;99.90;;;;;;5033806;28;20030;-62
2023/08/08 06:49:08;;;;;;;3.28;0.85;;;23.40;99.90;;;;;;5033842;28;20068;-62
2023/08/08 06:51:35;;;;;;;2.60;0.90;;;23.40;99.90;;;;;;5033902;28;20029;-62
2023/08/08 06:54:00;;;;;;;2.38;0.90;;;23.50;99.90;;;;;;5033699;28;20550;-63
2023/08/08 06:56:26;;;;;;;1.58;0.98;;;23.60;99.90;;;;;;5033706;28;20029;-62
2023/08/08 06:58:53;;;;;;;3.03;1.00;;;23.50;99.90;;;;;;5032286;28;20045;-63
2023/08/08 07:01:19;;;;;;;101.57;9.93;;;23.60;99.90;;;;;;5033881;28;20487;-63
2023/08/08 07:03:44;;;;;;;2.80;1.30;;;23.60;99.90;;;;;;5033400;28;20029;-63
2023/08/08 07:06:10;;;;;;;6.57;1.60;;;23.70;99.90;;;;;;5033433;28;20155;-63
2023/08/08 07:08:39;;;;;;;2.13;1.08;;;23.60;99.90;;;;;;5033618;28;20022;-63
2023/08/08 07:11:05;;;;;;;4.00;2.40;;;23.60;99.90;;;;;;5033462;28;20025;-63
2023/08/08 07:13:31;;;;;;;4.65;1.90;;;23.50;99.90;;;;;;5033389;28;20020;-63
2023/08/08 07:15:57;;;;;;;3.45;1.08;;;23.50;99.90;;;;;;5033405;28;20348;-63
2023/08/08 07:18:23;;;;;;;2.17;1.20;;;23.50;99.90;;;;;;5033315;28;20091;-63
2023/08/08 07:20:49;;;;;;;3.05;1.40;;;22.10;99.90;;;;;;5033351;28;20045;-60
2023/08/08 07:23:16;;;;;;;3.65;1.50;;;22.80;99.90;;;;;;5041477;28;20041;-61
2023/08/08 07:25:42;;;;;;;45.95;6.75;;;;;;;;;;5039032;28;20021;-60
2023/08/08 07:28:08;;;;;;;7.50;1.42;;;23.40;99.90;;;;;;5033636;28;20414;-61
2023/08/08 07:30:34;;;;;;;1.70;0.95;;;23.40;99.90;;;;;;5033182;28;20081;-59
2023/08/08 07:33:00;;;;;;;3.13;1.20;;;23.50;99.90;;;;;;5033015;28;20143;-60
2023/08/08 07:35:26;;;;;;;18.45;3.40;;;23.50;99.90;;;;;;5033400;28;20026;-60
2023/08/08 07:37:51;;;;;;;7.75;1.75;;;23.60;99.90;;;;;;5024544;28;20066;-59
2023/08/08 07:40:19;;;;;;;7.05;2.60;;;23.70;99.90;;;;;;5033021;28;20376;-62
2023/08/08 07:42:47;;;;;;;1.08;0.80;;;23.70;99.90;;;;;;5030125;28;20080;-62
2023/08/08 07:45:13;;;;;;;28.17;6.38;;;23.80;99.90;;;;;;5032612;28;20038;-63
2023/08/08 07:48:05;;;;;;;4.75;1.30;;;23.80;99.90;;;;;;5032976;28;20108;-64
2023/08/08 07:50:31;;;;;;;2.60;1.10;;;23.90;99.90;;;;;;5019139;28;20029;-64
2023/08/08 07:52:56;;;;;;;1.88;1.20;;;24.00;99.90;;;;;;5033024;28;20025;-66
2023/08/08 07:55:22;;;;;;;2.67;1.52;;;24.10;99.90;;;;;;5033387;28;20014;-67
2023/08/08 07:57:48;;;;;;;1.95;0.90;;;24.20;99.90;;;;;;5033387;28;20375;-77
2023/08/08 08:00:14;;;;;;;3.47;1.23;;;24.20;99.90;;;;;;5043982;28;20064;-69
2023/08/08 08:02:42;;;;;;;2.40;1.23;;;24.20;99.90;;;;;;5035416;28;20042;-71
2023/08/08 08:05:09;;;;;;;2.97;1.40;;;24.20;99.90;;;;;;5033119;28;20025;-66
2023/08/08 08:07:35;;;;;;;1.48;1.38;;;24.20;99.90;;;;;;5039544;28;20021;-68
2023/08/08 08:10:06;;;;;;;1.75;1.10;;;24.20;99.90;;;;;;5040158;28;20030;-58
2023/08/08 08:12:32;;;;;;;2.75;1.17;;;24.30;99.90;;;;;;5033003;28;20028;-55
2023/08/08 08:14:58;;;;;;;3.45;1.23;;;24.30;99.90;;;;;;5032710;28;20036;-60
2023/08/08 08:17:23;;;;;;;4.97;1.38;;;24.30;99.90;;;;;;5031449;28;20029;-63
2023/08/08 08:19:51;;;;;;;3.72;1.35;;;24.40;99.90;;;;;;5032699;28;20034;-63
2023/08/08 08:22:17;;;;;;;4.53;1.30;;;24.40;99.90;;;;;;5032731;28;20048;-61
2023/08/08 08:24:43;;;;;;;5.93;1.67;;;24.30;99.90;;;;;;5032733;28;20112;-63
2023/08/08 08:27:08;;;;;;;3.72;1.50;;;24.40;99.90;;;;;;5032713;28;20459;-62
2023/08/08 08:29:34;;;;;;;3.25;1.25;;;24.50;99.90;;;;;;5032480;28;20052;-62
2023/08/08 08:32:00;;;;;;;2.60;1.60;;;24.40;99.90;;;;;;5032532;28;20025;-62
2023/08/08 08:34:25;;;;;;;4.57;1.88;;;24.40;99.90;;;;;;5032659;28;20086;-63
2023/08/08 08:36:54;;;;;;;6.50;1.83;;;24.50;99.90;;;;;;5032864;28;20471;-64
2023/08/08 08:39:19;;;;;;;5.15;1.92;;;24.50;99.90;;;;;;5032734;28;20438;-61
2023/08/08 08:41:49;;;;;;;3.65;1.67;;;24.40;99.90;;;;;;5032346;28;20021;-63
2023/08/08 08:44:16;;;;;;;2.65;1.67;;;24.30;99.90;;;;;;5031047;28;20079;-65
2023/08/08 08:46:42;;;;;;;3.53;1.63;;;24.20;99.90;;;;;;5031616;28;20025;-63
2023/08/08 08:49:10;;;;;;;4.75;1.95;;;24.20;99.90;;;;;;5032460;28;20399;-63
2023/08/08 08:51:36;;;;;;;2.17;1.40;;;24.20;99.90;;;;;;5032361;28;20028;-66
2023/08/08 08:54:02;;;;;;;6.60;1.65;;;24.30;99.90;;;;;;5032377;28;20066;-63
2023/08/08 08:56:28;;;;;;;3.38;1.75;;;24.30;99.90;;;;;;5028116;28;20022;-63
2023/08/08 08:58:54;;;;;;;2.40;1.48;;;24.20;99.90;;;;;;5035929;28;20052;-60
2023/08/08 09:01:23;;;;;;;2.47;1.70;;;24.20;99.90;;;;;;5035875;28;20048;-63
2023/08/08 09:03:49;;;;;;;4.43;1.33;;;24.20;99.90;;;;;;5034731;28;20487;-62
2023/08/08 09:06:16;;;;;;;1.92;1.20;;;24.30;99.90;;;;;;5046247;28;20029;-62
2023/08/08 09:08:42;;;;;;;1.45;0.85;;;24.40;99.90;;;;;;5028223;28;20380;-64
2023/08/08 09:11:08;;;;;;;1.83;0.60;;;24.50;99.90;;;;;;5035883;28;20018;-65
2023/08/08 09:13:40;;;;;;;3.50;0.80;;;24.50;99.90;;;;;;5035680;28;20025;-64
2023/08/08 09:16:09;;;;;;;3.80;1.25;;;24.50;99.90;;;;;;5036028;28;20475;-65
2023/08/08 09:18:39;;;;;;;2.00;1.50;;;24.60;99.90;;;;;;5035860;28;20041;-60
2023/08/08 09:21:07;;;;;;;2.42;1.20;;;24.70;99.90;;;;;;5035606;28;20022;-61
2023/08/08 09:23:33;;;;;;;0.80;0.77;;;24.80;99.90;;;;;;5035774;28;20387;-61
2023/08/08 09:25:59;;;;;;;3.22;0.75;;;25.00;99.90;;;;;;5035672;28;20025;-60
2023/08/08 09:28:25;;;;;;;6.53;1.20;;;25.10;99.90;;;;;;5035620;28;20145;-61
2023/08/08 09:30:51;;;;;;;2.30;0.80;;;25.10;99.90;;;;;;5034031;28;20049;-63
2023/08/08 09:33:17;;;;;;;0.95;0.57;;;25.20;99.90;;;;;;5030449;28;20045;-62
2023/08/08 09:35:44;;;;;;;1.70;0.70;;;25.20;99.90;;;;;;5028381;28;20119;-64
2023/08/08 09:38:09;;;;;;;3.47;0.50;;;25.20;99.90;;;;;;5032918;28;20029;-62
2023/08/08 09:40:36;;;;;;;2.67;0.88;;;25.30;99.90;;;;;;5033505;28;20109;-65
2023/08/08 09:43:02;;;;;;;0.90;0.70;;;25.30;99.90;;;;;;5035304;28;20447;-65
2023/08/08 09:45:36;;;;;;;2.03;0.88;;;25.50;99.90;;;;;;5033518;28;20403;-62
2023/08/08 09:48:03;;;;;;;1.35;0.80;;;25.60;99.90;;;;;;5035216;28;20112;-67
2023/08/08 09:50:29;;;;;;;2.47;1.00;;;25.60;99.90;;;;;;5030618;28;20883;-67
2023/08/08 09:52:55;;;;;;;1.40;0.90;;;25.80;99.90;;;;;;5024627;28;20033;-67
2023/08/08 09:55:22;;;;;;;2.65;0.90;;;25.90;99.90;;;;;;5034221;28;20037;-68
2023/08/08 09:57:49;;;;;;;1.00;0.77;;;25.80;99.90;;;;;;5029618;28;20497;-67
2023/08/08 10:00:20;;;;;;;5.78;0.90;;;25.80;99.90;;;;;;5056202;28;20081;-68
2023/08/08 10:02:47;;;;;;;1.50;1.02;;;25.70;99.90;;;;;;5034971;28;20087;-68
2023/08/08 10:05:14;;;;;;;1.45;1.02;;;25.60;99.90;;;;;;5030110;28;20053;-68
2023/08/08 10:07:41;;;;;;;5.90;2.15;;;25.70;99.90;;;;;;5030893;28;20437;-68
2023/08/08 10:10:09;;;;;;;1.42;1.10;;;25.70;99.90;;;;;;5021057;28;20041;-68
2023/08/08 10:12:38;;;;;;;7.38;2.50;;;25.60;99.90;;;;;;5019030;28;20033;-68
2023/08/08 10:15:08;;;;;;;7.70;2.92;;;25.60;99.90;;;;;;5032136;28;20021;-68
2023/08/08 10:17:38;;;;;;;2.92;1.20;;;25.70;99.90;;;;;;5024959;28;20064;-68
2023/08/08 10:20:11;;;;;;;5.25;2.35;;;25.70;99.90;;;;;;5033415;28;20037;-68
2023/08/08 10:22:42;;;;;;;12.90;3.80;;;25.70;99.90;;;;;;5033969;28;20021;-63
2023/08/08 10:25:08;;;;;;;5.00;1.92;;;25.80;99.90;;;;;;5033081;28;20033;-63
2023/08/08 10:27:35;;;;;;;46.08;7.57;;;25.80;99.90;;;;;;5039566;28;20040;-64
2023/08/08 10:30:12;;;;;;;15.68;4.43;;;25.80;99.90;;;;;;5034376;28;20082;-66
2023/08/08 10:32:46;;;;;;;7.03;2.53;;;25.80;99.90;;;;;;5034440;28;20567;-66
2023/08/08 10:35:12;;;;;;;8.32;4.03;;;25.80;99.90;;;;;;5032746;28;20079;-66
2023/08/08 10:37:39;;;;;;;8.40;2.85;;;25.80;99.90;;;;;;5033302;28;20014;-67
2023/08/08 10:40:06;;;;;;;2.38;1.55;;;25.90;99.90;;;;;;5034149;28;20034;-67
2023/08/08 10:42:40;;;;;;;7.07;3.17;;;25.90;99.90;;;;;;5034129;28;20106;-67
2023/08/08 10:45:13;;;;;;;7.70;2.25;;;25.90;99.90;;;;;;5033927;28;20030;-66
2023/08/08 10:47:39;;;;;;;4.95;2.60;;;26.10;99.90;;;;;;5034322;28;20096;-66
2023/08/08 10:50:16;;;;;;;4.15;2.35;;;26.00;99.90;;;;;;5033702;28;20053;-66
2023/08/08 10:52:54;;;;;;;5.38;1.70;;;26.10;99.90;;;;;;5033876;28;20069;-67
2023/08/08 10:55:27;;;;;;;5.22;2.30;;;26.20;99.90;;;;;;5033745;28;20121;-67
2023/08/08 10:57:57;;;;;;;5.35;2.53;;;26.20;99.90;;;;;;5032779;28;20026;-67
2023/08/08 11:00:25;;;;;;;2.58;2.00;;;26.20;99.90;;;;;;5047533;28;20053;-67
2023/08/08 11:02:51;;;;;;;4.68;2.75;;;26.30;99.90;;;;;;5028760;28;20041;-67
2023/08/08 11:05:17;;;;;;;6.38;2.83;;;26.30;99.90;;;;;;5033526;28;20017;-67
2023/08/08 11:07:45;;;;;;;8.45;3.60;;;26.30;99.90;;;;;;5032457;28;20049;-67
2023/08/08 11:10:11;;;;;;;4.68;2.53;;;26.30;99.90;;;;;;5033539;28;20540;-67
2023/08/08 11:12:36;;;;;;;7.30;3.22;;;26.40;99.90;;;;;;5033689;28;20407;-67
2023/08/08 11:15:03;;;;;;;5.55;2.10;;;26.50;99.90;;;;;;5033776;28;20017;-67
2023/08/08 11:17:29;;;;;;;3.80;2.63;;;26.60;99.90;;;;;;5033370;28;20502;-68
2023/08/08 11:19:55;;;;;;;4.60;2.10;;;26.70;99.90;;;;;;5033116;28;20060;-68
2023/08/08 11:22:24;;;;;;;2.25;1.65;;;26.70;99.90;;;;;;5047295;28;20069;-67
2023/08/08 11:24:50;;;;;;;4.00;1.70;;;27.00;99.90;;;;;;5033122;28;20029;-67
2023/08/08 11:27:16;;;;;;;3.42;2.42;;;27.10;99.90;;;;;;5033439;28;20442;-67
2023/08/08 11:29:50;;;;;;;3.25;2.67;;;27.10;99.90;;;;;;5033282;28;20061;-67
2023/08/08 11:32:16;;;;;;;5.60;3.33;;;27.20;99.90;;;;;;5031814;28;20356;-67
2023/08/08 11:34:42;;;;;;;2.97;2.30;;;27.30;99.90;;;;;;5033039;28;20037;-67
2023/08/08 11:37:09;;;;;;;3.58;2.25;;;27.40;99.90;;;;;;5046389;28;20535;-67
2023/08/08 11:39:36;;;;;;;2.90;2.10;;;27.60;99.90;;;;;;5030752;28;20034;-67
2023/08/08 11:42:02;;;;;;;2.20;1.85;;;27.60;99.90;;;;;;5031993;28;20051;-66
2023/08/08 11:44:28;;;;;;;3.25;1.90;;;27.80;99.90;;;;;;5032049;28;20046;-67
2023/08/08 11:46:53;;;;;;;5.82;3.38;;;28.00;99.90;;;;;;5031890;28;20101;-66
2023/08/08 11:49:19;;;;;;;2.78;1.98;;;28.50;99.90;;;;;;5030896;28;20482;-66
2023/08/08 11:51:45;;;;;;;4.65;2.78;;;29.40;99.90;;;;;;5031801;28;20029;-65
2023/08/08 11:54:12;;;;;;;4.68;2.08;;;;;;;;;;5031836;28;20038;-66
2023/08/08 11:56:38;;;;;;;8.20;3.60;;;31.50;99.90;;;;;;5032184;28;20025;-67
2023/08/08 11:59:05;;;;;;;2.33;2.13;;;37.10;99.90;;;;;;5019691;28;20526;-66
2023/08/08 12:01:32;;;;;;;2.53;2.05;;;38.90;99.90;;;;;;5046169;28;20067;-66
2023/08/08 12:04:04;;;;;;;2.85;2.50;;;38.70;99.90;;;;;;5031870;28;20036;-66
2023/08/08 12:06:30;;;;;;;2.50;2.30;;;37.00;99.90;;;;;;5032215;28;20048;-67
2023/08/08 12:08:55;;;;;;;3.10;2.40;;;37.50;99.90;;;;;;5031812;28;20487;-66
2023/08/08 12:11:21;;;;;;;2.67;2.03;;;40.80;99.90;;;;;;5031872;28;20117;-67
2023/08/08 12:13:47;;;;;;;3.40;2.83;;;39.40;99.90;;;;;;5031877;28;20020;-66
2023/08/08 12:16:14;;;;;;;4.07;2.58;;;37.50;99.90;;;;;;5030457;28;20041;-67
2023/08/08 12:18:40;;;;;;;3.70;3.40;;;36.60;99.90;;;;;;5031970;28;20030;-67
2023/08/08 12:21:09;;;;;;;3.50;3.05;;;35.90;99.90;;;;;;5031406;28;20091;-67
2023/08/08 12:23:36;;;;;;;3.53;3.13;;;35.60;99.90;;;;;;5033147;28;20065;-67
2023/08/08 12:26:07;;;;;;;2.58;2.38;;;34.80;99.90;;;;;;5028983;28;20057;-67
2023/08/08 12:28:33;;;;;;;3.75;2.40;;;34.00;99.90;;;;;;5029848;28;20068;-66
2023/08/08 12:30:59;;;;;;;5.43;2.83;;;33.70;99.90;;;;;;5024417;28;20076;-66
2023/08/08 12:33:24;;;;;;;3.53;3.20;;;33.90;99.90;;;;;;5034793;28;20033;-67
2023/08/08 12:35:50;;;;;;;2.47;2.28;;;34.90;99.90;;;;;;5032854;28;20101;-67
2023/08/08 12:38:16;;;;;;;1.55;1.45;;;36.10;99.90;;;;;;5032127;28;20418;-67
2023/08/08 12:40:42;;;;;;;3.05;1.50;;;36.20;99.90;;;;;;5032315;28;20076;-67
2023/08/08 12:43:10;;;;;;;3.13;2.70;;;37.00;99.90;;;;;;5035264;28;20037;-66
2023/08/08 12:45:36;;;;;;;2.53;2.00;;;36.80;99.90;;;;;;5032127;28;20448;-67